Time;durP1;ratioP1;P1;durP2;ratioP2;P2;SDS_P1;SDS_P2;PMS_P1;PMS_P2;Temp;Humidity;BMP_temperature;BMP_pressure;BME280_temperature;BME280_humidity;BME280_pressure;Samples;Min_cycle;Max_cycle;Signal;HPM_P1;HPM_P2
2023/07/28 00:02:21;;;;;;;16.45;9.63;;;;;;;32.41;57.21;97807.72;5048081;28;20042;-68
2023/07/28 00:04:47;;;;;;;23.33;11.38;;;;;;;32.43;57.71;97816.41;5031256;28;20041;-68
2023/07/28 00:07:13;;;;;;;18.60;10.77;;;;;;;32.43;57.05;97819.97;5031538;28;20042;-68
2023/07/28 00:09:39;;;;;;;20.92;11.52;;;;;;;32.40;56.82;97814.34;5032461;28;20052;-68
2023/07/28 00:12:05;;;;;;;25.98;13.43;;;;;;;32.41;57.21;97835.22;5014957;28;20164;-68
2023/07/28 00:14:31;;;;;;;21.90;12.48;;;;;;;32.56;56.46;97846.34;5032963;28;20423;-69
2023/07/28 00:16:58;;;;;;;23.83;12.65;;;;;;;32.50;56.21;97839.47;5017065;28;20041;-68
2023/07/28 00:19:23;;;;;;;25.08;12.60;;;;;;;32.21;57.24;97858.84;5032158;28;20069;-68
2023/07/28 00:21:50;;;;;;;25.42;13.27;;;;;;;32.12;57.42;97865.59;5015219;28;20132;-68
2023/07/28 00:24:17;;;;;;;22.90;13.35;;;;;;;31.78;58.37;97850.28;4982165;28;20038;-68
2023/07/28 00:26:43;;;;;;;24.10;13.32;;;;;;;32.15;57.37;97853.94;4998271;28;20055;-68
2023/07/28 00:29:11;;;;;;;21.38;13.23;;;;;;;32.42;55.88;97842.31;5031005;28;20045;-68
2023/07/28 00:31:37;;;;;;;19.42;12.32;;;;;;;32.41;55.11;97849.75;5014339;28;20041;-68
2023/07/28 00:34:03;;;;;;;22.85;13.18;;;;;;;31.84;58.03;97854.44;4998488;28;20061;-68
2023/07/28 00:36:30;;;;;;;18.50;12.52;;;;;;;31.70;59.49;97837.44;5014878;28;20045;-68
2023/07/28 00:38:57;;;;;;;20.30;11.95;;;;;;;31.47;59.92;97838.94;5031025;28;20041;-68
2023/07/28 00:41:24;;;;;;;16.17;12.70;;;;;;;31.18;60.93;97815.09;5030776;28;20053;-67
2023/07/28 00:43:50;;;;;;;18.35;11.85;;;;;;;31.30;61.24;97810.84;5030659;28;20388;-69
2023/07/28 00:46:17;;;;;;;22.75;12.35;;;;;;;31.56;60.11;97814.97;4998440;28;20074;-68
2023/07/28 00:48:44;;;;;;;20.58;12.68;;;;;;;31.52;61.00;97813.22;5014603;28;20199;-68
2023/07/28 00:51:09;;;;;;;23.10;12.70;;;;;;;31.47;60.16;97806.00;5030875;28;20128;-69
2023/07/28 00:53:38;;;;;;;17.08;11.07;;;;;;;31.69;60.27;97813.06;5015684;28;20040;-69
2023/07/28 00:56:05;;;;;;;19.85;12.23;;;;;;;31.71;59.37;97806.06;5035375;28;20076;-69
2023/07/28 00:58:32;;;;;;;22.73;12.32;;;;;;;31.69;59.61;97816.59;5019931;28;20038;-70
2023/07/28 01:00:58;;;;;;;17.65;11.48;;;;;;;31.77;58.70;97810.22;5035531;28;20056;-69
2023/07/28 01:03:24;;;;;;;19.65;11.57;;;;;;;32.04;58.29;97815.13;5019244;28;20110;-69
2023/07/28 01:06:15;;;;;;;23.65;12.18;;;;;;;32.14;57.76;97825.66;5018669;28;20045;-68
2023/07/28 01:08:43;;;;;;;16.25;11.38;;;;;;;31.99;59.18;97818.09;5035560;28;20061;-68
2023/07/28 01:11:09;;;;;;;23.65;12.77;;;;;;;31.77;58.67;97823.94;5017916;28;20151;-69
2023/07/28 01:13:35;;;;;;;18.38;12.52;;;;;;;31.65;58.94;97812.94;5017957;28;20144;-71
2023/07/28 01:16:01;;;;;;;19.08;11.40;;;;;;;31.94;58.40;97815.53;5035923;28;20057;-70
2023/07/28 01:18:28;;;;;;;18.25;11.00;;;;;;;32.09;57.71;97823.13;5017997;28;20049;-69
2023/07/28 01:20:56;;;;;;;17.42;11.07;;;;;;;32.36;56.94;97817.00;5001613;28;20140;-69
2023/07/28 01:23:37;;;;;;;17.50;11.73;;;;;;;32.50;56.73;97820.22;5017850;28;20045;-70
2023/07/28 01:26:12;;;;;;;19.40;11.38;;;;;;;32.76;55.14;97817.09;5018986;28;20132;-69
2023/07/28 01:28:41;;;;;;;14.15;10.85;;;;;;;32.54;55.52;97834.88;5001377;28;20092;-69
2023/07/28 01:31:07;;;;;;;16.63;11.15;;;;;;;32.16;56.53;97823.38;5051316;28;20158;-69
2023/07/28 01:33:34;;;;;;;20.95;11.85;;;;;;;32.06;56.73;97817.53;5036505;28;20048;-69
2023/07/28 01:36:00;;;;;;;17.48;10.70;;;;;;;31.82;57.30;97801.75;5037394;28;20037;-69
2023/07/28 01:38:28;;;;;;;17.55;11.27;;;;;;;31.81;57.49;97791.94;5034441;28;20088;-69
2023/07/28 01:40:53;;;;;;;17.90;11.35;;;;;;;31.72;57.63;97796.69;5035110;28;20149;-68
2023/07/28 01:43:20;;;;;;;20.48;11.30;;;;;;;31.74;58.30;97783.44;5033835;28;20486;-67
2023/07/28 01:45:46;;;;;;;16.38;12.25;;;;;;;31.79;57.53;97787.91;5017546;28;20130;-68
2023/07/28 01:48:11;;;;;;;17.42;12.32;;;;;;;31.62;57.58;97797.13;5017431;28;20065;-68
2023/07/28 01:50:37;;;;;;;19.23;12.13;;;;;;;31.60;58.67;97790.41;5034651;28;20495;-69
2023/07/28 01:53:06;;;;;;;14.20;10.02;;;;;;;31.87;58.02;97771.38;5034139;28;20130;-69
2023/07/28 01:55:33;;;;;;;18.38;10.93;;;;;;;31.85;57.22;97776.41;5034903;28;20060;-68
2023/07/28 01:58:01;;;;;;;17.45;10.68;;;;;;;31.89;56.52;97774.56;4984760;28;20049;-70
2023/07/28 02:00:27;;;;;;;15.05;10.05;;;;;;;32.12;55.27;97792.22;5001084;28;20060;-68
2023/07/28 02:02:54;;;;;;;19.20;10.63;;;;;;;31.89;56.32;97791.03;5017231;28;20034;-69
2023/07/28 02:05:20;;;;;;;17.52;11.30;;;;;;;31.92;55.26;97790.34;5033388;28;20120;-68
2023/07/28 02:07:46;;;;;;;17.38;11.90;;;;;;;31.99;54.66;97814.53;5015876;28;20183;-68
2023/07/28 02:10:12;;;;;;;16.73;11.35;;;;;;;31.89;54.53;97806.75;5000885;28;20069;-68
2023/07/28 02:12:39;;;;;;;19.77;11.10;;;;;;;32.14;55.04;97811.91;5017092;28;20053;-68
2023/07/28 02:15:07;;;;;;;18.52;11.13;;;;;;;32.18;54.05;97807.31;5033782;28;20049;-69
2023/07/28 02:17:35;;;;;;;17.50;11.48;;;;;;;32.08;54.01;97799.56;5017020;28;20052;-69
2023/07/28 02:20:03;;;;;;;19.65;12.40;;;;;;;31.98;54.52;97800.00;5017036;28;20052;-68
2023/07/28 02:22:33;;;;;;;14.77;10.98;;;;;;;32.31;54.50;97808.16;5018923;28;20045;-67
2023/07/28 02:25:01;;;;;;;18.38;10.82;;;;;;;32.27;53.39;97797.06;5017182;28;20045;-69
2023/07/28 02:27:32;;;;;;;18.83;10.73;;;;;;;32.61;51.98;97795.81;5034251;28;20227;-69
2023/07/28 02:29:58;;;;;;;18.20;11.73;;;;;;;32.54;51.74;97801.88;5016749;28;20498;-67
2023/07/28 02:32:24;;;;;;;18.52;12.30;;;;;;;32.07;52.35;97808.94;5032977;28;20571;-66
2023/07/28 02:34:50;;;;;;;19.60;12.20;;;;;;;31.72;54.29;97823.38;5032799;28;20072;-68
2023/07/28 02:37:16;;;;;;;18.63;12.43;;;;;;;31.78;55.44;97819.25;5000009;28;20044;-68
2023/07/28 02:39:42;;;;;;;16.85;11.80;;;;;;;31.35;55.51;97805.16;5016364;28;20561;-68
2023/07/28 02:42:08;;;;;;;21.65;12.35;;;;;;;31.08;57.48;97792.75;5033157;28;20034;-67
2023/07/28 02:44:34;;;;;;;21.10;13.75;;;;;;;31.05;57.89;97807.97;5031094;28;20052;-67
2023/07/28 02:47:00;;;;;;;19.08;13.80;;;;;;;31.05;58.48;97810.69;5030411;28;20063;-67
2023/07/28 02:49:28;;;;;;;21.10;13.43;;;;;;;31.02;58.19;97810.56;5013268;28;20583;-67
2023/07/28 02:51:54;;;;;;;19.35;14.02;;;;;;;30.74;59.17;97801.22;5032023;28;20506;-67
2023/07/28 02:54:23;;;;;;;24.40;14.15;;;;;;;30.67;60.61;97809.16;5047056;28;20053;-67
2023/07/28 02:56:49;;;;;;;25.40;14.80;;;;;;;30.51;61.38;97808.94;5000021;28;20045;-67
2023/07/28 02:59:15;;;;;;;17.70;13.95;;;;;;;30.57;60.78;97806.78;5032438;28;20052;-67
2023/07/28 03:01:41;;;;;;;24.60;13.20;;;;;;;30.77;60.87;97803.31;4983636;28;20349;-67
2023/07/28 03:04:07;;;;;;;20.00;13.18;;;;;;;30.98;58.52;97818.63;5000496;28;20077;-67
2023/07/28 03:06:54;;;;;;;20.50;12.93;;;;;;;30.68;59.40;97814.31;5032470;28;20037;-66
2023/07/28 03:09:20;;;;;;;18.38;12.50;;;;;;;31.20;57.78;97831.22;5033428;28;20056;-67
2023/07/28 03:11:54;;;;;;;19.40;12.95;;;;;;;31.10;59.15;97840.69;5017182;28;20102;-67
2023/07/28 03:14:20;;;;;;;21.33;13.40;;;;;;;30.93;58.49;97835.31;5016063;28;20053;-67
2023/07/28 03:16:46;;;;;;;19.70;12.85;;;;;;;31.10;58.91;97835.19;5016382;28;20098;-67
2023/07/28 03:19:12;;;;;;;21.08;13.73;;;;;;;30.76;59.94;97840.91;5032464;28;20045;-67
2023/07/28 03:21:38;;;;;;;24.33;13.70;;;;;;;30.50;60.73;97837.47;5000375;28;20041;-67
2023/07/28 03:24:04;;;;;;;20.45;13.38;;;;;;;30.68;60.54;97866.38;5032756;28;20136;-67
2023/07/28 03:26:30;;;;;;;21.27;13.23;;;;;;;30.48;60.55;97877.28;5015807;28;20072;-68
2023/07/28 03:28:56;;;;;;;22.67;14.18;;;;;;;30.27;62.49;97892.84;5016512;28;20130;-67
2023/07/28 03:31:22;;;;;;;31.52;14.70;;;;;;;30.21;62.69;97927.84;5033692;28;20045;-67
2023/07/28 03:33:48;;;;;;;26.60;15.75;;;;;;;29.99;64.33;97914.31;5015776;28;20434;-67
2023/07/28 03:36:14;;;;;;;26.83;16.58;;;;;;;29.97;65.69;97932.97;5015976;28;20050;-68
2023/07/28 03:38:39;;;;;;;20.77;14.40;;;;;;;29.69;66.23;97988.41;5016806;28;20041;-67
2023/07/28 03:41:06;;;;;;;22.00;14.95;;;;;;;29.52;67.64;98022.78;5017165;28;20033;-67
2023/07/28 03:43:32;;;;;;;21.35;15.68;;;;;;;29.20;69.81;98120.84;5015775;28;20549;-67
2023/07/28 03:45:58;;;;;;;81.35;26.58;;;;;;;31.38;100.00;100354.34;5015807;28;20045;-65
2023/07/28 03:48:29;;;;;;;205.65;39.20;;;;;;;-141.23;100.00;62281.09;5015403;28;20388;-65
2023/07/28 03:50:54;;;;;;;213.80;40.63;;;;;;;-141.23;100.00;62281.09;5032039;28;20132;-65
2023/07/28 03:53:50;;;;;;;43.35;20.65;;;;;;;-141.23;100.00;62281.09;5014872;28;20149;-65
2023/07/28 03:56:15;;;;;;;46.03;17.65;;;;;;;-141.23;100.00;62281.09;5032350;28;20037;-65
2023/07/28 03:58:41;;;;;;;34.38;16.25;;;;;;;-141.23;100.00;62281.09;5015257;28;20042;-66
2023/07/28 04:01:07;;;;;;;28.98;16.48;;;;;;;-141.23;100.00;62281.09;5014948;28;20098;-66
2023/07/28 04:03:33;;;;;;;105.20;22.58;;;;;;;-141.23;100.00;62281.09;5032102;28;20241;-66
2023/07/28 04:06:11;;;;;;;101.63;20.73;;;;;;;-141.23;100.00;62281.09;5031347;28;20048;-66
2023/07/28 04:08:40;;;;;;;85.65;14.10;;;;;;;-141.23;100.00;62281.09;5032347;28;20400;-66
2023/07/28 04:11:07;;;;;;;50.00;17.10;;;;;;;-141.23;100.00;62281.09;4999308;28;20033;-66
2023/07/28 04:13:34;;;;;;;59.83;16.38;;;;;;;-141.23;100.00;62281.09;5031504;28;20059;-66
2023/07/28 04:16:00;;;;;;;83.78;20.48;;;;;;;-141.23;100.00;62281.09;5031136;28;20499;-66
2023/07/28 04:18:26;;;;;;;27.75;15.80;;;;;;;-141.23;100.00;62281.09;5032117;28;20041;-69
2023/07/28 04:20:52;;;;;;;22.35;12.65;;;;;;;-141.23;100.00;62281.09;5031030;28;20491;-67
2023/07/28 04:24:15;;;;;;;20.05;11.95;;;;;;;-141.23;100.00;62281.09;4991149;28;20053;-69
2023/07/28 04:27:44;;;;;;;14.60;11.65;;;;;;;-141.23;100.00;62281.09;5031949;28;20048;-69
2023/07/28 04:31:05;;;;;;;20.65;13.55;;;;;;;-141.23;100.00;62281.09;5030255;28;20177;-68
2023/07/28 04:34:47;;;;;;;25.08;11.38;;;;;;;-141.23;100.00;62281.09;5015706;28;20045;-68
2023/07/28 04:37:15;;;;;;;20.88;12.63;;;;;;;-141.23;100.00;62281.09;5029631;28;20041;-69
2023/07/28 04:39:51;;;;;;;20.17;11.85;;;;;;;-141.23;100.00;62281.09;4999636;28;20045;-69
2023/07/28 04:42:17;;;;;;;16.77;11.05;;;;;;;-141.23;100.00;62281.09;5013581;28;20049;-69
2023/07/28 04:44:46;;;;;;;24.00;13.57;;;;;;;-141.23;100.00;62281.09;4996268;28;20049;-69
2023/07/28 04:47:13;;;;;;;20.45;12.70;;;;;;;-141.23;100.00;62281.09;5029111;28;20058;-69
2023/07/28 04:49:40;;;;;;;22.83;15.15;;;;;;;-141.23;100.00;62281.09;4995799;28;20050;-69
2023/07/28 04:52:07;;;;;;;16.58;12.20;;;;;;;-141.23;100.00;62281.09;4996066;28;20836;-69
2023/07/28 04:54:56;;;;;;;20.27;12.30;;;;;;;-141.23;100.00;62281.09;5028117;28;20041;-69
2023/07/28 04:57:22;;;;;;;15.45;9.20;;;;;;;-141.23;100.00;62281.09;5012412;28;20510;-69
2023/07/28 04:59:48;;;;;;;15.30;9.40;;;;;;;-141.23;100.00;62281.09;5012933;28;20490;-69
2023/07/28 05:02:14;;;;;;;15.50;7.80;;;;;;;-141.23;100.00;62281.09;5012508;28;20037;-69
2023/07/28 05:04:40;;;;;;;14.43;7.78;;;;;;;-141.23;100.00;62281.09;5012470;28;20388;-69
2023/07/28 05:07:06;;;;;;;9.48;7.45;;;;;;;-141.23;100.00;62281.09;5029337;28;20049;-69
2023/07/28 05:09:32;;;;;;;12.15;6.70;;;;;;;-141.23;100.00;62281.09;4997717;28;20476;-69
2023/07/28 05:11:58;;;;;;;10.27;6.28;;;;;;;-141.23;100.00;62281.09;4995309;28;20053;-69
2023/07/28 05:14:24;;;;;;;12.82;7.28;;;;;;;-141.23;100.00;62281.09;5012289;28;20076;-69
2023/07/28 05:16:50;;;;;;;13.07;6.38;;;;;;;-141.23;100.00;62281.09;4996540;28;20100;-68
2023/07/28 05:19:41;;;;;;;9.68;5.53;;;;;;;-141.23;100.00;62281.09;5004035;28;20049;-68
2023/07/28 05:22:25;;;;;;;8.00;5.78;;;;;;;-141.23;100.00;62281.09;5029622;28;20045;-68
2023/07/28 05:24:53;;;;;;;7.65;5.78;;;;;;;-141.23;100.00;62281.09;5013236;28;20037;-69
2023/07/28 05:27:19;;;;;;;11.05;4.18;;;;;;;-141.23;100.00;62281.09;5028788;28;20042;-69
2023/07/28 05:29:47;;;;;;;10.23;6.47;;;;;;;-141.23;100.00;62281.09;4997031;28;20091;-68
2023/07/28 05:32:13;;;;;;;9.70;5.60;;;;;;;-141.23;100.00;62281.09;5013415;28;20053;-68
2023/07/28 05:35:01;;;;;;;10.63;4.70;;;;;;;-141.23;100.00;62281.09;5019268;28;20049;-68
2023/07/28 05:37:30;;;;;;;9.38;5.07;;;;;;;-141.23;100.00;62281.09;5031434;28;20041;-68
2023/07/28 05:39:56;;;;;;;9.35;4.50;;;;;;;-141.23;100.00;62281.09;4997755;28;20060;-68
2023/07/28 05:42:21;;;;;;;11.80;5.13;;;;;;;-141.23;100.00;62281.09;5033547;28;20365;-68
2023/07/28 05:44:48;;;;;;;7.88;5.28;;;;;;;-141.23;100.00;62281.09;5034270;28;20052;-68
2023/07/28 05:47:14;;;;;;;6.07;4.70;;;;;;;-141.23;100.00;62281.09;5034204;28;20040;-68
2023/07/28 05:49:40;;;;;;;9.25;5.82;;;;;;;-141.23;100.00;62281.09;5020805;28;20479;-68
2023/07/28 05:52:06;;;;;;;11.07;5.57;;;;;;;-141.23;100.00;62281.09;5037434;28;20139;-68
2023/07/28 05:54:32;;;;;;;8.77;5.38;;;;;;;-141.23;100.00;62281.09;5053929;28;20041;-67
2023/07/28 05:56:58;;;;;;;10.30;6.13;;;;;;;-141.23;100.00;62281.09;5037033;28;20048;-68
2023/07/28 05:59:23;;;;;;;13.55;6.53;;;;;;;-141.23;100.00;62281.09;5054420;28;20056;-68
2023/07/28 06:01:49;;;;;;;8.88;5.60;;;;;;;-141.23;100.00;62281.09;5036352;28;20041;-67
2023/07/28 06:04:21;;;;;;;10.63;5.40;;;;;;;-141.23;100.00;62281.09;5037589;28;20056;-68
2023/07/28 06:06:50;;;;;;;11.77;5.88;;;;;;;-141.23;100.00;62281.09;5053151;28;20482;-68
2023/07/28 06:09:17;;;;;;;13.93;6.18;;;;;;;-141.23;100.00;62281.09;5053139;28;20045;-68
2023/07/28 06:11:44;;;;;;;21.13;6.40;;;;;;;-141.23;100.00;62281.09;5052013;28;20414;-68
2023/07/28 06:14:10;;;;;;;11.85;6.25;;;;;;;-141.23;100.00;62281.09;5053034;28;20048;-68
2023/07/28 06:16:37;;;;;;;13.50;6.00;;;;;;;-141.23;100.00;62281.09;5052267;28;20131;-68
2023/07/28 06:19:04;;;;;;;19.15;6.63;;;;;;;-141.23;100.00;62281.09;5052187;28;20394;-68
2023/07/28 06:21:30;;;;;;;12.50;5.65;;;;;;;-141.23;100.00;62281.09;5036274;28;20045;-68
2023/07/28 06:23:56;;;;;;;8.55;5.03;;;;;;;-141.23;100.00;62281.09;5035762;28;20047;-68
2023/07/28 06:26:22;;;;;;;11.98;6.05;;;;;;;-141.23;100.00;62281.09;5051813;28;20041;-68
2023/07/28 06:28:48;;;;;;;10.10;5.15;;;;;;;-141.23;100.00;62281.09;5036057;28;20379;-68
2023/07/28 06:31:14;;;;;;;12.13;5.47;;;;;;;-141.23;100.00;62281.09;5053125;28;20045;-69
2023/07/28 06:33:41;;;;;;;8.65;4.50;;;;;;;-141.23;100.00;62281.09;5036535;28;20051;-68
2023/07/28 06:36:07;;;;;;;8.77;4.22;;;;;;;-141.23;100.00;62281.09;5035697;28;20079;-68
2023/07/28 06:38:33;;;;;;;8.05;4.25;;;;;;;-141.23;100.00;62281.09;5002750;28;20076;-69
2023/07/28 06:41:00;;;;;;;6.32;3.80;;;;;;;-141.23;100.00;62281.09;5019037;28;20124;-68
2023/07/28 06:43:26;;;;;;;9.57;4.18;;;;;;;-141.23;100.00;62281.09;5051682;28;20048;-67
2023/07/28 06:45:54;;;;;;;34.90;5.10;;;;;;;-141.23;100.00;62281.09;5018852;28;20045;-68
2023/07/28 06:48:20;;;;;;;174.52;11.80;;;;;;;-141.23;100.00;62281.09;5019233;28;20441;-66
2023/07/28 06:50:45;;;;;;;23.17;6.93;;;;;;;-141.23;100.00;62281.09;5051484;28;20537;-67
2023/07/28 06:53:11;;;;;;;17.83;6.93;;;;;;;-141.23;100.00;62281.09;5051339;28;20044;-67
2023/07/28 06:55:40;;;;;;;24.98;6.88;;;;;;;-141.23;100.00;62281.09;5036633;28;20386;-67
2023/07/28 06:58:06;;;;;;;12.38;7.20;;;;;;;-141.23;100.00;62281.09;5054857;28;20045;-67
2023/07/28 07:00:33;;;;;;;12.98;7.43;;;;;;;-141.23;100.00;62281.09;5052247;28;20052;-67
2023/07/28 07:03:01;;;;;;;11.48;8.45;;;;;;;-141.23;100.00;62281.09;5019165;28;20115;-68
2023/07/28 07:05:27;;;;;;;8.48;5.85;;;;;;;-141.23;100.00;62281.09;5051556;28;20060;-68
2023/07/28 07:07:54;;;;;;;10.00;7.05;;;;;;;-141.23;100.00;62281.09;5018762;28;20095;-67
2023/07/28 07:10:20;;;;;;;12.00;6.10;;;;;;;-141.23;100.00;62281.09;5035092;28;20475;-67
2023/07/28 07:12:47;;;;;;;14.23;6.30;;;;;;;-141.23;100.00;62281.09;5001476;28;20103;-68
2023/07/28 07:15:14;;;;;;;11.30;6.15;;;;;;;-141.23;100.00;62281.09;5002394;28;20051;-67
2023/07/28 07:17:40;;;;;;;10.95;6.20;;;;;;;-141.23;100.00;62281.09;5035015;28;20110;-68
2023/07/28 07:20:10;;;;;;;10.40;6.38;;;;;;;-141.23;100.00;62281.09;5034527;28;20524;-67
2023/07/28 07:22:36;;;;;;;13.82;6.60;;;;;;;-141.23;100.00;62281.09;5034175;28;20036;-68
2023/07/28 07:25:04;;;;;;;11.80;6.47;;;;;;;-141.23;100.00;62281.09;5018361;28;20056;-68
2023/07/28 07:27:31;;;;;;;16.13;7.15;;;;;;;-141.23;100.00;62281.09;5050787;28;20060;-68
2023/07/28 07:29:57;;;;;;;11.82;7.03;;;;;;;-141.23;100.00;62281.09;5018141;28;20047;-67
2023/07/28 07:32:23;;;;;;;9.65;6.00;;;;;;;-141.23;100.00;62281.09;5051940;28;20064;-68
2023/07/28 07:34:50;;;;;;;14.77;6.63;;;;;;;-141.23;100.00;62281.09;5050891;28;20119;-68
2023/07/28 07:37:15;;;;;;;12.68;6.38;;;;;;;-141.23;100.00;62281.09;5034249;28;20056;-69
2023/07/28 07:39:43;;;;;;;10.57;6.47;;;;;;;-141.23;100.00;62281.09;5018367;28;20091;-68
2023/07/28 07:42:11;;;;;;;11.63;5.85;;;;;;;-141.23;100.00;62281.09;5020047;28;20354;-69
2023/07/28 07:44:37;;;;;;;12.90;6.07;;;;;;;-141.23;100.00;62281.09;4996799;28;20495;-69
2023/07/28 07:47:12;;;;;;;9.70;5.63;;;;;;;-141.23;100.00;62281.09;5012643;28;20384;-69
2023/07/28 07:49:38;;;;;;;9.77;5.53;;;;;;;-141.23;100.00;62281.09;5013448;28;20438;-69
2023/07/28 07:52:07;;;;;;;11.35;5.15;;;;;;;-141.23;100.00;62281.09;5012720;28;20063;-68
2023/07/28 07:54:33;;;;;;;9.77;5.57;;;;;;;-141.23;100.00;62281.09;4996712;28;20072;-69
2023/07/28 07:56:59;;;;;;;10.63;6.20;;;;;;;-141.23;100.00;62281.09;5029487;28;20045;-69
2023/07/28 07:59:27;;;;;;;12.52;7.47;;;;;;;-141.23;100.00;62281.09;4980539;28;20057;-69
2023/07/28 08:01:54;;;;;;;8.68;4.85;;;;;;;-141.23;100.00;62281.09;4980526;28;20041;-68
2023/07/28 08:04:20;;;;;;;9.80;5.40;;;;;;;-141.23;100.00;62281.09;4994815;28;20061;-67
2023/07/28 08:06:46;;;;;;;9.75;6.38;;;;;;;-141.23;100.00;62281.09;5012671;28;20306;-68
2023/07/28 08:09:12;;;;;;;22.67;4.88;;;;;;;-141.23;100.00;62281.09;4973500;28;20057;-68
2023/07/28 08:11:39;;;;;;;8.27;3.85;;;;;;;-141.23;100.00;62281.09;4956237;28;20165;-71
2023/07/28 08:14:06;;;;;;;7.40;3.40;;;;;;;-141.23;100.00;62281.09;4990065;28;20124;-71
2023/07/28 08:16:33;;;;;;;7.70;3.70;;;;;;;-141.23;100.00;62281.09;4991515;28;20104;-72
2023/07/28 08:18:59;;;;;;;7.88;3.80;;;;;;;-141.23;100.00;62281.09;4992980;28;20049;-71
2023/07/28 08:21:25;;;;;;;8.45;3.40;;;;;;;-141.23;100.00;62281.09;4977093;28;20403;-71
2023/07/28 08:23:51;;;;;;;10.45;3.47;;;;;;;-141.23;100.00;62281.09;4992720;28;20483;-69
2023/07/28 08:26:17;;;;;;;8.57;3.45;;;;;;;-141.23;100.00;62281.09;4977145;28;20077;-72
2023/07/28 08:28:44;;;;;;;7.13;3.67;;;;;;;-141.23;100.00;62281.09;4977722;28;20049;-69
2023/07/28 08:31:11;;;;;;;5.55;3.72;;;;;;;-141.23;100.00;62281.09;4960828;28;20046;-69
2023/07/28 08:33:37;;;;;;;7.30;3.53;;;;;;;-141.23;100.00;62281.09;4994109;28;20037;-69
2023/07/28 08:36:04;;;;;;;16.83;4.45;;;;;;;-141.23;100.00;62281.09;5017747;28;20065;-69
2023/07/28 08:38:30;;;;;;;10.27;4.03;;;;;;;-141.23;100.00;62281.09;5000853;28;20050;-68
2023/07/28 08:40:58;;;;;;;10.63;4.05;;;;;;;-141.23;100.00;62281.09;5022988;28;20060;-68
2023/07/28 08:43:24;;;;;;;8.02;3.88;;;;;;;-141.23;100.00;62281.09;5012526;28;20110;-68
2023/07/28 08:45:51;;;;;;;8.30;3.60;;;;;;;-141.23;100.00;62281.09;4996213;28;20151;-69
2023/07/28 08:48:18;;;;;;;10.38;4.10;;;;;;;-141.23;100.00;62281.09;5029035;28;20092;-68
2023/07/28 08:50:44;;;;;;;6.35;3.90;;;;;;;-141.23;100.00;62281.09;5029043;28;20174;-68
2023/07/28 08:53:09;;;;;;;7.65;4.15;;;;;;;-141.23;100.00;62281.09;4996207;28;20041;-68
2023/07/28 08:55:35;;;;;;;10.70;3.80;;;;;;;-141.23;100.00;62281.09;5030844;28;20046;-68
2023/07/28 08:58:34;;;;;;;12.45;4.70;;;;;;;-141.23;100.00;62281.09;5013881;28;20037;-68
2023/07/28 09:01:04;;;;;;;9.15;4.97;;;;;;;-141.23;100.00;62281.09;5012500;28;20141;-68
2023/07/28 09:03:31;;;;;;;12.93;5.20;;;;;;;-141.23;100.00;62281.09;5028960;28;20115;-68
2023/07/28 09:06:01;;;;;;;9.23;5.28;;;;;;;-141.23;100.00;62281.09;5012430;28;20136;-68
2023/07/28 09:08:28;;;;;;;9.50;5.30;;;;;;;-141.23;100.00;62281.09;5012399;28;20469;-67
2023/07/28 09:10:57;;;;;;;10.13;4.97;;;;;;;-141.23;100.00;62281.09;4995737;28;20045;-68
2023/07/28 09:13:23;;;;;;;9.32;5.18;;;;;;;-141.23;100.00;62281.09;5027733;28;20061;-68
2023/07/28 09:15:49;;;;;;;7.88;5.18;;;;;;;-141.23;100.00;62281.09;5013611;28;20037;-68
2023/07/28 09:18:17;;;;;;;8.70;4.97;;;;;;;-141.23;100.00;62281.09;5000083;28;20053;-68
2023/07/28 09:20:44;;;;;;;17.23;5.70;;;;;;;-141.23;100.00;62281.09;5033799;28;20049;-67
2023/07/28 09:23:13;;;;;;;10.57;5.55;;;;;;;-141.23;100.00;62281.09;5017561;28;20125;-66
2023/07/28 09:25:38;;;;;;;8.52;5.85;;;;;;;-141.23;100.00;62281.09;5033175;28;20049;-67
2023/07/28 09:28:04;;;;;;;11.15;6.15;;;;;;;-141.23;100.00;62281.09;5017247;28;20794;-67
2023/07/28 09:30:49;;;;;;;16.27;6.93;;;;;;;-141.23;100.00;62281.09;5017068;28;20041;-67
2023/07/28 09:33:30;;;;;;;11.48;6.60;;;;;;;-141.23;100.00;62281.09;5033382;28;20041;-69
2023/07/28 09:35:57;;;;;;;13.10;6.65;;;;;;;-141.23;100.00;62281.09;5033565;28;20118;-68
2023/07/28 09:38:24;;;;;;;10.10;5.53;;;;;;;-141.23;100.00;62281.09;5034574;28;20053;-67
2023/07/28 09:40:50;;;;;;;16.20;7.00;;;;;;;-141.23;100.00;62281.09;5018264;28;20037;-67
2023/07/28 09:43:16;;;;;;;11.18;5.63;;;;;;;-141.23;100.00;62281.09;5035708;28;20130;-67
2023/07/28 09:45:43;;;;;;;11.25;6.18;;;;;;;-141.23;100.00;62281.09;5037374;28;20088;-66
2023/07/28 09:48:10;;;;;;;14.43;7.00;;;;;;;-141.23;100.00;62281.09;5036267;28;20051;-67
2023/07/28 09:50:38;;;;;;;12.82;7.30;;;;;;;-141.23;100.00;62281.09;5052980;28;20055;-67
2023/07/28 09:53:04;;;;;;;11.15;6.88;;;;;;;-141.23;100.00;62281.09;5054341;28;20119;-67
2023/07/28 09:55:32;;;;;;;13.75;7.32;;;;;;;-141.23;100.00;62281.09;5052855;28;20083;-67
2023/07/28 09:57:59;;;;;;;13.18;7.70;;;;;;;-141.23;100.00;62281.09;5054283;28;20052;-67
2023/07/28 10:00:25;;;;;;;13.93;7.50;;;;;;;-141.23;100.00;62281.09;5037000;28;20041;-66
2023/07/28 10:02:52;;;;;;;12.90;8.35;;;;;;;-141.23;100.00;62281.09;5053936;28;20114;-67
2023/07/28 10:05:20;;;;;;;13.27;8.05;;;;;;;-141.23;100.00;62281.09;5020199;28;20037;-69
2023/07/28 10:07:48;;;;;;;16.48;8.70;;;;;;;-141.23;100.00;62281.09;5053004;28;20379;-67
2023/07/28 10:10:14;;;;;;;13.85;8.82;;;;;;;-141.23;100.00;62281.09;5003739;28;20136;-67
2023/07/28 10:12:42;;;;;;;22.00;9.43;;;;;;;-141.23;100.00;62281.09;5035006;28;20091;-68
2023/07/28 10:15:15;;;;;;;15.55;8.15;;;;;;;-141.23;100.00;62281.09;5018826;28;20088;-66
2023/07/28 10:17:47;;;;;;;14.38;7.70;;;;;;;-141.23;100.00;62281.09;5019780;28;20391;-66
2023/07/28 10:20:36;;;;;;;13.43;7.90;;;;;;;-141.23;100.00;62281.09;5036400;28;20053;-67
2023/07/28 10:23:12;;;;;;;12.45;6.85;;;;;;;-141.23;100.00;62281.09;5051973;28;20472;-67
2023/07/28 10:25:38;;;;;;;11.77;6.70;;;;;;;-141.23;100.00;62281.09;5018932;28;20041;-66
2023/07/28 10:28:06;;;;;;;11.30;6.90;;;;;;;-141.23;100.00;62281.09;5034677;28;20072;-67
2023/07/28 10:30:37;;;;;;;12.75;6.70;;;;;;;-141.23;100.00;62281.09;5035795;28;20459;-67
2023/07/28 10:33:04;;;;;;;13.43;6.43;;;;;;;-141.23;100.00;62281.09;5036149;28;20045;-66
2023/07/28 10:35:32;;;;;;;10.27;6.70;;;;;;;-141.23;100.00;62281.09;5053434;28;20090;-66
2023/07/28 10:37:58;;;;;;;15.65;6.13;;;;;;;-141.23;100.00;62281.09;5036378;28;20040;-66
2023/07/28 10:40:38;;;;;;;10.55;6.30;;;;;;;-141.23;100.00;62281.09;5019207;28;20076;-66
2023/07/28 10:43:04;;;;;;;17.10;7.10;;;;;;;-141.23;100.00;62281.09;5052616;28;20048;-65
2023/07/28 10:45:32;;;;;;;9.73;5.47;;;;;;;-141.23;100.00;62281.09;5052965;28;20072;-66
2023/07/28 10:48:03;;;;;;;9.75;5.65;;;;;;;-141.23;100.00;62281.09;5035301;28;20627;-66
2023/07/28 10:50:30;;;;;;;9.50;5.13;;;;;;;-141.23;100.00;62281.09;5035720;28;20068;-66
2023/07/28 10:52:57;;;;;;;14.73;6.93;;;;;;;-141.23;100.00;62281.09;5034786;28;20044;-66
2023/07/28 10:55:25;;;;;;;9.93;6.13;;;;;;;-141.23;100.00;62281.09;5002230;28;20557;-66
2023/07/28 10:57:52;;;;;;;10.63;5.85;;;;;;;-141.23;100.00;62281.09;5051453;28;20045;-66
2023/07/28 11:00:21;;;;;;;12.50;6.13;;;;;;;-141.23;100.00;62281.09;5051413;28;20059;-67
2023/07/28 11:02:52;;;;;;;13.38;5.68;;;;;;;-141.23;100.00;62281.09;5018998;28;20037;-66
2023/07/28 11:05:24;;;;;;;10.57;5.80;;;;;;;-141.23;100.00;62281.09;5052096;28;20123;-67
2023/07/28 11:07:57;;;;;;;12.90;5.85;;;;;;;-141.23;100.00;62281.09;5034636;28;20099;-68
2023/07/28 11:10:24;;;;;;;8.88;5.05;;;;;;;-141.23;100.00;62281.09;4997324;28;20053;-69
2023/07/28 11:12:52;;;;;;;11.45;5.43;;;;;;;-141.23;100.00;62281.09;5012625;28;20053;-68
2023/07/28 11:15:19;;;;;;;12.38;6.00;;;;;;;-141.23;100.00;62281.09;5030178;28;20064;-69